Richland, Oregon
Current Conditions -  °F | °C
As of 7:53 AM on Saturday 25 Oct 2014 (Local Time) from KBKE Reporting Station
Clear Clear  
Wind Chill: 52°   Ceiling: Unl
Heat Index: 52°   Visibility: 10mi
Dew Point: 45°   Wind: 17mph
Humidity: 77%   Direction: 90°E
Pressure: 29.76"   Gusts: NA
Location:  44.77°N, 117.17°W
Report Text: KBKE 251453Z AUTO 09015KT 10SM CLR 11/07 A2976 RMK AO2 SLP076 T01110072 58015
Loading
Personal Weather Stations






























Interactive Weather Map
Tropical Storm Tracking
New forecast layout! Learn more

10-Day Weather Forecast

Advertisements
Track Severe Weather on mobile